Time,TemperatureF,DewpointF,PressureIn,WindDirection,WindDirectionDegrees,WindSpeedMPH,WindSpeedGustMPH,Humidity,HourlyPrecipIn,Conditions,Clouds,dailyrainin,SoftwareType,DateUTC
2013-05-02 00:01:00,16.0,-1.0,-100.00,NNW,339,10.0,17.0,47,-99.99,,,-99.99,,2013-05-02 06:01:00,
2013-05-02 00:12:00,16.0,-1.0,-100.00,NNW,339,10.0,17.0,47,-99.99,,,-99.99,,2013-05-02 06:12:00,
2013-05-02 00:21:00,16.0,-2.0,-100.00,NW,325,6.0,13.0,45,-99.99,,,-99.99,,2013-05-02 06:21:00,
2013-05-02 00:31:00,16.0,-2.0,-100.00,NW,325,6.0,13.0,45,-99.99,,,-99.99,,2013-05-02 06:31:00,
2013-05-02 00:42:00,16.0,-2.0,-100.00,NW,325,6.0,13.0,45,-99.99,,,-99.99,,2013-05-02 06:42:00,
2013-05-02 00:52:00,16.0,-2.0,-100.00,NW,320,7.0,15.0,44,-99.99,,,-99.99,,2013-05-02 06:52:00,
2013-05-02 01:01:00,16.0,-2.0,-100.00,NW,315,9.0,18.0,44,-99.99,,,-99.99,,2013-05-02 07:01:00,
2013-05-02 01:11:00,16.0,-2.0,-100.00,NW,315,9.0,18.0,44,-99.99,,,-99.99,,2013-05-02 07:11:00,
2013-05-02 01:21:00,16.0,-1.0,-100.00,NW,317,8.0,14.0,46,-99.99,,,-99.99,,2013-05-02 07:21:00,
2013-05-02 01:31:00,16.0,-1.0,-100.00,NW,317,8.0,14.0,46,-99.99,,,-99.99,,2013-05-02 07:31:00,
2013-05-02 01:41:00,16.0,-1.0,-100.00,NW,317,8.0,14.0,46,-99.99,,,-99.99,,2013-05-02 07:41:00,
2013-05-02 01:52:00,15.0,-1.0,-100.00,WNW,284,3.0,10.0,49,-99.99,,,-99.99,,2013-05-02 07:52:00,
2013-05-02 02:02:00,16.0,-1.0,-100.00,WNW,287,5.0,10.0,47,-99.99,,,-99.99,,2013-05-02 08:02:00,
2013-05-02 02:11:00,16.0,-1.0,-100.00,WNW,287,5.0,10.0,47,-99.99,,,-99.99,,2013-05-02 08:11:00,
2013-05-02 02:21:00,16.0,-1.0,-100.00,NW,312,7.0,15.0,46,-99.99,,,-99.99,,2013-05-02 08:21:00,
2013-05-02 02:32:00,16.0,-1.0,-100.00,NW,307,8.0,17.0,46,-99.99,,,-99.99,,2013-05-02 08:32:00,
2013-05-02 02:42:00,16.0,-1.0,-100.00,NW,307,8.0,17.0,46,-99.99,,,-99.99,,2013-05-02 08:42:00,
2013-05-02 02:52:00,17.0,-1.0,-100.00,NW,319,11.0,19.0,45,-99.99,,,-99.99,,2013-05-02 08:52:00,
2013-05-02 03:02:00,16.0,-1.0,-100.00,NNW,329,13.0,22.0,47,-99.99,,,-99.99,,2013-05-02 09:02:00,
2013-05-02 03:11:00,16.0,-1.0,-100.00,NNW,329,13.0,22.0,47,-99.99,,,-99.99,,2013-05-02 09:11:00,
2013-05-02 03:21:00,16.0,0.0,-100.00,NW,322,7.0,13.0,48,-99.99,,,-99.99,,2013-05-02 09:21:00,
2013-05-02 03:32:00,15.0,0.0,-100.00,NW,313,6.0,13.0,50,-99.99,,,-99.99,,2013-05-02 09:32:00,
2013-05-02 03:42:00,15.0,0.0,-100.00,NW,313,6.0,13.0,50,-99.99,,,-99.99,,2013-05-02 09:42:00,
2013-05-02 03:52:00,14.0,0.0,-100.00,West,277,5.0,14.0,54,-99.99,,,-99.99,,2013-05-02 09:52:00,
2013-05-02 04:02:00,14.0,1.0,-100.00,WNW,288,4.0,16.0,55,-99.99,,,-99.99,,2013-05-02 10:02:00,
2013-05-02 04:12:00,14.0,1.0,-100.00,WNW,288,4.0,16.0,55,-99.99,,,-99.99,,2013-05-02 10:12:00,
2013-05-02 04:22:00,14.0,1.0,-100.00,SW,229,3.0,13.0,56,-99.99,,,-99.99,,2013-05-02 10:22:00,
2013-05-02 04:32:00,14.0,1.0,-100.00,WNW,296,4.0,14.0,56,-99.99,,,-99.99,,2013-05-02 10:32:00,
2013-05-02 04:42:00,14.0,1.0,-100.00,WNW,296,4.0,14.0,56,-99.99,,,-99.99,,2013-05-02 10:42:00,
2013-05-02 04:52:00,15.0,2.0,-100.00,NNW,339,5.0,16.0,56,-99.99,,,-99.99,,2013-05-02 10:52:00,
2013-05-02 05:02:00,14.0,2.0,-100.00,South,174,4.0,20.0,59,-99.99,,,-99.99,,2013-05-02 11:02:00,
2013-05-02 05:11:00,14.0,2.0,-100.00,South,174,4.0,20.0,59,-99.99,,,-99.99,,2013-05-02 11:11:00,
2013-05-02 05:21:00,14.0,3.0,-100.00,NNW,330,5.0,18.0,60,-99.99,,,-99.99,,2013-05-02 11:21:00,
2013-05-02 05:32:00,14.0,1.0,-100.00,NNE,21,3.0,10.0,55,-99.99,,,-99.99,,2013-05-02 11:32:00,
2013-05-02 05:42:00,14.0,1.0,-100.00,NNE,21,3.0,10.0,55,-99.99,,,-99.99,,2013-05-02 11:42:00,
2013-05-02 05:52:00,15.0,1.0,-100.00,SSE,148,1.0,4.0,53,-99.99,,,-99.99,,2013-05-02 11:52:00,
2013-05-02 06:01:00,15.0,1.0,-100.00,SW,233,2.0,9.0,53,-99.99,,,-99.99,,2013-05-02 12:01:00,
2013-05-02 06:11:00,15.0,1.0,-100.00,SW,233,2.0,9.0,53,-99.99,,,-99.99,,2013-05-02 12:11:00,
2013-05-02 06:21:00,15.0,1.0,-100.00,SSE,168,1.0,6.0,52,-99.99,,,-99.99,,2013-05-02 12:21:00,
2013-05-02 06:32:00,15.0,1.0,-100.00,SSE,168,1.0,6.0,52,-99.99,,,-99.99,,2013-05-02 12:32:00,
2013-05-02 06:42:00,15.0,1.0,-100.00,SSE,168,1.0,6.0,52,-99.99,,,-99.99,,2013-05-02 12:42:00,
2013-05-02 06:52:00,15.0,1.0,-100.00,SSW,199,2.0,5.0,52,-99.99,,,-99.99,,2013-05-02 12:52:00,
2013-05-02 07:01:00,15.0,1.0,-100.00,West,280,3.0,7.0,53,-99.99,,,-99.99,,2013-05-02 13:01:00,
2013-05-02 07:11:00,15.0,1.0,-100.00,West,280,3.0,7.0,53,-99.99,,,-99.99,,2013-05-02 13:11:00,
2013-05-02 07:21:00,15.0,1.0,-100.00,WSW,258,3.0,7.0,52,-99.99,,,-99.99,,2013-05-02 13:21:00,
2013-05-02 07:31:00,16.0,1.0,-100.00,West,269,5.0,11.0,50,-99.99,,,-99.99,,2013-05-02 13:31:00,
2013-05-02 07:41:00,16.0,1.0,-100.00,West,269,5.0,11.0,50,-99.99,,,-99.99,,2013-05-02 13:41:00,
2013-05-02 07:52:00,17.0,2.0,-100.00,West,271,3.0,7.0,50,-99.99,,,-99.99,,2013-05-02 13:52:00,
2013-05-02 08:02:00,17.0,1.0,-100.00,WNW,287,5.0,10.0,49,-99.99,,,-99.99,,2013-05-02 14:02:00,
2013-05-02 08:11:00,17.0,1.0,-100.00,WNW,287,5.0,10.0,49,-99.99,,,-99.99,,2013-05-02 14:11:00,
2013-05-02 08:21:00,21.0,2.0,-100.00,West,270,5.0,9.0,43,-99.99,,,-99.99,,2013-05-02 14:21:00,
2013-05-02 08:31:00,25.0,4.0,-100.00,WSW,254,5.0,8.0,39,-99.99,,,-99.99,,2013-05-02 14:31:00,
2013-05-02 08:52:00,26.0,4.0,-100.00,WSW,255,6.0,10.0,38,-99.99,,,-99.99,,2013-05-02 14:52:00,
2013-05-02 09:02:00,26.0,4.0,-100.00,West,267,4.0,8.0,38,-99.99,,,-99.99,,2013-05-02 15:02:00,
2013-05-02 09:21:00,24.0,5.0,-100.00,SW,215,3.0,7.0,43,-99.99,,,-99.99,,2013-05-02 15:21:00,
2013-05-02 09:32:00,22.0,9.0,-100.00,South,187,1.0,5.0,56,-99.99,,,-99.99,,2013-05-02 15:32:00,
2013-05-02 09:43:00,22.0,9.0,-100.00,South,187,1.0,5.0,56,-99.99,,,-99.99,,2013-05-02 15:43:00,
2013-05-02 10:02:00,21.0,10.0,-100.00,WNW,288,3.0,7.0,61,-99.99,,,-99.99,,2013-05-02 16:02:00,
2013-05-02 10:13:00,21.0,10.0,-100.00,WNW,288,3.0,7.0,61,-99.99,,,-99.99,,2013-05-02 16:13:00,
2013-05-02 10:22:00,22.0,11.0,-100.00,WNW,293,4.0,7.0,61,-99.99,,,-99.99,,2013-05-02 16:22:00,
2013-05-02 10:32:00,22.0,11.0,-100.00,WNW,290,3.0,8.0,63,-99.99,,,-99.99,,2013-05-02 16:32:00,
2013-05-02 10:43:00,22.0,11.0,-100.00,WNW,290,3.0,8.0,63,-99.99,,,-99.99,,2013-05-02 16:43:00,
2013-05-02 10:52:00,25.0,12.0,-100.00,WNW,299,4.0,9.0,57,-99.99,,,-99.99,,2013-05-02 16:52:00,
2013-05-02 11:02:00,24.0,12.0,-100.00,NW,307,6.0,12.0,59,-99.99,,,-99.99,,2013-05-02 17:02:00,
2013-05-02 11:12:00,24.0,12.0,-100.00,NW,307,6.0,12.0,59,-99.99,,,-99.99,,2013-05-02 17:12:00,
2013-05-02 11:22:00,24.0,13.0,-100.00,NW,308,7.0,12.0,61,-99.99,,,-99.99,,2013-05-02 17:22:00,
2013-05-02 11:31:00,25.0,13.0,-100.00,NW,320,8.0,12.0,59,-99.99,,,-99.99,,2013-05-02 17:31:00,
2013-05-02 11:42:00,25.0,13.0,-100.00,NW,320,8.0,12.0,59,-99.99,,,-99.99,,2013-05-02 17:42:00,
2013-05-02 11:52:00,24.0,13.0,-100.00,NNW,328,6.0,11.0,62,-99.99,,,-99.99,,2013-05-02 17:52:00,
2013-05-02 12:01:00,26.0,15.0,-100.00,NNW,333,6.0,11.0,63,-99.99,,,-99.99,,2013-05-02 18:01:00,
2013-05-02 12:11:00,26.0,15.0,-100.00,NNW,333,6.0,11.0,63,-99.99,,,-99.99,,2013-05-02 18:11:00,
2013-05-02 12:21:00,29.0,15.0,-100.00,NW,320,7.0,13.0,56,-99.99,,,-99.99,,2013-05-02 18:21:00,
2013-05-02 12:31:00,30.0,14.0,-100.00,NNW,327,8.0,14.0,51,-99.99,,,-99.99,,2013-05-02 18:31:00,
2013-05-02 12:41:00,30.0,14.0,-100.00,NNW,327,8.0,14.0,51,-99.99,,,-99.99,,2013-05-02 18:41:00,
2013-05-02 12:52:00,28.0,13.0,-100.00,NNW,330,10.0,16.0,52,-99.99,,,-99.99,,2013-05-02 18:52:00,
2013-05-02 13:01:00,32.0,13.0,-100.00,NNW,331,9.0,15.0,45,-99.99,,,-99.99,,2013-05-02 19:01:00,
2013-05-02 13:11:00,32.0,13.0,-100.00,NNW,331,9.0,15.0,45,-99.99,,,-99.99,,2013-05-02 19:11:00,
2013-05-02 13:21:00,33.0,14.0,-100.00,NNW,335,7.0,14.0,45,-99.99,,,-99.99,,2013-05-02 19:21:00,
2013-05-02 13:31:00,36.0,15.0,-100.00,SSW,204,3.0,9.0,41,-99.99,,,-99.99,,2013-05-02 19:31:00,
2013-05-02 13:41:00,36.0,15.0,-100.00,SSW,204,3.0,9.0,41,-99.99,,,-99.99,,2013-05-02 19:41:00,
2013-05-02 13:52:00,37.0,16.0,-100.00,South,188,3.0,13.0,41,-99.99,,,-99.99,,2013-05-02 19:52:00,
2013-05-02 14:02:00,38.0,16.0,-100.00,SSW,194,3.0,12.0,41,-99.99,,,-99.99,,2013-05-02 20:02:00,
2013-05-02 14:11:00,38.0,16.0,-100.00,SSW,194,3.0,12.0,41,-99.99,,,-99.99,,2013-05-02 20:11:00,
2013-05-02 14:22:00,40.0,16.0,-100.00,WNW,295,4.0,11.0,38,-99.99,,,-99.99,,2013-05-02 20:22:00,
2013-05-02 14:30:00,38.0,13.0,-100.00,NW,308,5.0,13.0,36,-99.99,,,-99.99,,2013-05-02 20:30:00,
2013-05-02 14:32:00,40.0,17.0,-100.00,WSW,240,2.0,10.0,39,-99.99,,,-99.99,,2013-05-02 20:32:00,
2013-05-02 14:41:00,40.0,17.0,-100.00,WSW,240,2.0,10.0,39,-99.99,,,-99.99,,2013-05-02 20:41:00,
2013-05-02 14:52:00,37.0,15.0,-100.00,NW,326,4.0,13.0,40,-99.99,,,-99.99,,2013-05-02 20:52:00,
2013-05-02 15:01:00,38.0,13.0,-100.00,NW,308,5.0,13.0,36,-99.99,,,-99.99,,2013-05-02 21:01:00,
2013-05-02 15:11:00,38.0,13.0,-100.00,NW,308,5.0,13.0,36,-99.99,,,-99.99,,2013-05-02 21:11:00,
2013-05-02 15:21:00,38.0,13.0,-100.00,NW,308,5.0,13.0,36,-99.99,,,-99.99,,2013-05-02 21:21:00,
2013-05-02 23:21:00,29.0,7.0,-100.00,WNW,301,7.0,12.0,38,-99.99,,,-99.99,,2013-05-03 05:21:00,
2013-05-02 23:32:00,29.0,7.0,-100.00,NW,307,8.0,15.0,39,-99.99,,,-99.99,,2013-05-03 05:32:00,
2013-05-02 23:42:00,29.0,7.0,-100.00,NW,307,8.0,15.0,39,-99.99,,,-99.99,,2013-05-03 05:42:00,
2013-05-02 23:52:00,29.0,7.0,-100.00,WNW,301,9.0,14.0,39,-99.99,,,-99.99,,2013-05-03 05:52:00,